Time;durP1;ratioP1;P1;durP2;ratioP2;P2;SDS_P1;SDS_P2;PMS_P1;PMS_P2;Temp;Humidity;BMP_temperature;BMP_pressure;BME280_temperature;BME280_humidity;BME280_pressure;Samples;Min_cycle;Max_cycle;Signal;HPM_P1;HPM_P2
2023/06/21 00:00:00;;;;;;;15.63;14.02;;;20.90;92.30;;;;;;5051997;28;20025;-56
2023/06/21 00:02:28;;;;;;;15.25;13.75;;;20.90;92.30;;;;;;5052260;28;20027;-56
2023/06/21 00:04:55;;;;;;;14.82;13.32;;;20.90;92.20;;;;;;5052315;28;20033;-55
2023/06/21 00:07:23;;;;;;;15.27;13.77;;;20.90;92.10;;;;;;5052268;28;20029;-56
2023/06/21 00:09:49;;;;;;;14.93;13.43;;;20.80;92.00;;;;;;5052164;28;20028;-56
2023/06/21 00:12:15;;;;;;;15.52;14.02;;;20.80;91.90;;;;;;5051277;28;20112;-56
2023/06/21 00:14:41;;;;;;;14.52;13.13;;;20.80;91.80;;;;;;5052338;28;20040;-56
2023/06/21 00:17:06;;;;;;;14.52;13.10;;;20.70;91.60;;;;;;5051949;28;20025;-56
2023/06/21 00:19:32;;;;;;;15.30;13.70;;;20.80;91.60;;;;;;5051171;28;20021;-56
2023/06/21 00:21:59;;;;;;;14.68;13.25;;;20.70;91.50;;;;;;5051774;28;20025;-56
2023/06/21 00:24:25;;;;;;;14.38;13.02;;;20.70;91.30;;;;;;5051627;28;20071;-53
2023/06/21 00:26:50;;;;;;;14.27;12.88;;;20.70;91.20;;;;;;5051967;28;20476;-56
2023/06/21 00:29:16;;;;;;;13.93;12.63;;;20.70;91.10;;;;;;5051925;28;20499;-54
2023/06/21 00:31:42;;;;;;;13.90;12.50;;;20.70;91.10;;;;;;5051643;28;20380;-54
2023/06/21 00:34:07;;;;;;;14.32;12.93;;;20.70;91.10;;;;;;5051693;28;20100;-56
2023/06/21 00:36:33;;;;;;;14.35;12.85;;;20.70;91.20;;;;;;5051764;28;20163;-56
2023/06/21 00:38:59;;;;;;;14.40;13.00;;;20.70;91.30;;;;;;5051172;28;20472;-56
2023/06/21 00:41:24;;;;;;;15.30;13.40;;;20.70;91.30;;;;;;5051423;28;20075;-56
2023/06/21 00:43:50;;;;;;;14.38;12.95;;;20.70;91.40;;;;;;5051610;28;20027;-56
2023/06/21 00:46:16;;;;;;;14.55;13.15;;;20.70;91.40;;;;;;5051321;28;20108;-56
2023/06/21 00:48:43;;;;;;;14.07;12.63;;;20.70;91.30;;;;;;5051544;28;20033;-56
2023/06/21 00:51:13;;;;;;;13.82;12.43;;;20.70;91.40;;;;;;5051540;28;20108;-56
2023/06/21 00:53:40;;;;;;;15.38;13.88;;;20.70;91.50;;;;;;5051330;28;20036;-56
2023/06/21 00:56:06;;;;;;;13.93;12.60;;;20.70;91.40;;;;;;5051090;28;20029;-55
2023/06/21 00:58:33;;;;;;;14.88;13.38;;;20.80;91.40;;;;;;5051159;28;20032;-56
2023/06/21 01:00:59;;;;;;;15.05;13.65;;;20.80;91.50;;;;;;5051244;28;20415;-56
2023/06/21 01:03:26;;;;;;;14.18;12.88;;;20.80;91.50;;;;;;5051385;28;20029;-56
2023/06/21 01:06:22;;;;;;;14.05;12.70;;;20.90;91.40;;;;;;5051421;28;20021;-56
2023/06/21 01:08:48;;;;;;;13.82;12.43;;;20.80;91.00;;;;;;5051470;28;20021;-55
2023/06/21 01:11:37;;;;;;;13.20;11.95;;;20.80;91.30;;;;;;5051276;28;20488;-56
2023/06/21 01:14:18;;;;;;;15.15;12.80;;;20.80;91.10;;;;;;5051038;28;20029;-56
2023/06/21 01:16:48;;;;;;;13.57;12.18;;;20.90;90.90;;;;;;5051129;28;20025;-56
2023/06/21 01:19:41;;;;;;;13.82;12.43;;;20.90;91.00;;;;;;5051241;28;20055;-56
2023/06/21 01:22:34;;;;;;;13.43;12.00;;;20.90;90.70;;;;;;5048044;28;20519;-55
2023/06/21 01:25:18;;;;;;;13.13;11.82;;;20.90;90.60;;;;;;5050994;28;20025;-56
2023/06/21 01:28:17;;;;;;;12.88;11.57;;;21.00;90.50;;;;;;5050918;28;20017;-56
2023/06/21 01:30:45;;;;;;;12.98;11.65;;;21.00;90.30;;;;;;5051666;28;20029;-56
2023/06/21 01:33:12;;;;;;;12.63;11.43;;;21.00;90.10;;;;;;5055095;28;20037;-56
2023/06/21 01:35:39;;;;;;;13.10;11.80;;;21.10;90.00;;;;;;5054425;28;20044;-56
2023/06/21 01:38:05;;;;;;;13.77;12.43;;;21.10;89.80;;;;;;5055047;28;20056;-57
2023/06/21 01:40:31;;;;;;;18.25;13.98;;;21.10;89.60;;;;;;5055005;28;20511;-56
2023/06/21 01:42:57;;;;;;;15.13;13.68;;;21.10;89.20;;;;;;5055191;28;20033;-55
2023/06/21 01:45:24;;;;;;;14.38;12.98;;;21.10;89.10;;;;;;5054663;28;20025;-55
2023/06/21 01:47:51;;;;;;;12.98;11.73;;;21.10;88.90;;;;;;5054752;28;20045;-56
2023/06/21 01:50:18;;;;;;;13.95;12.65;;;21.10;89.00;;;;;;5054830;28;20040;-51
2023/06/21 01:52:46;;;;;;;13.27;12.05;;;21.10;89.10;;;;;;5054419;28;20025;-56
2023/06/21 01:55:12;;;;;;;13.52;12.20;;;21.10;89.20;;;;;;5054996;28;20040;-56
2023/06/21 01:57:39;;;;;;;13.75;12.45;;;21.20;89.40;;;;;;5054427;28;20519;-56
2023/06/21 02:00:40;;;;;;;13.90;12.60;;;21.20;89.20;;;;;;5054674;28;20103;-56
2023/06/21 02:03:04;;;;;;;14.27;12.77;;;21.20;89.20;;;;;;5052268;28;20493;-56
2023/06/21 02:05:32;;;;;;;14.25;12.85;;;21.20;88.80;;;;;;5054213;28;20404;-53
2023/06/21 02:08:00;;;;;;;14.98;13.57;;;21.20;88.80;;;;;;5054189;28;20108;-56
2023/06/21 02:10:26;;;;;;;15.40;13.88;;;21.20;88.80;;;;;;5054299;28;20037;-56
2023/06/21 02:12:52;;;;;;;15.27;13.77;;;21.20;88.80;;;;;;5054153;28;20036;-56
2023/06/21 02:15:19;;;;;;;15.90;14.32;;;21.20;89.40;;;;;;5054300;28;20033;-53
2023/06/21 02:17:49;;;;;;;15.48;13.98;;;21.20;89.50;;;;;;5054017;28;20028;-56
2023/06/21 02:20:16;;;;;;;14.23;12.93;;;21.20;89.00;;;;;;5054225;28;20589;-56
2023/06/21 02:22:43;;;;;;;14.70;13.30;;;21.20;88.80;;;;;;5054587;28;20404;-56
2023/06/21 02:25:10;;;;;;;15.88;14.25;;;21.10;88.60;;;;;;5053847;28;20109;-56
2023/06/21 02:27:36;;;;;;;15.60;14.00;;;21.10;88.50;;;;;;5054203;28;20096;-56
2023/06/21 02:30:02;;;;;;;15.82;14.25;;;21.10;88.50;;;;;;5053855;28;20460;-56
2023/06/21 02:32:28;;;;;;;15.80;14.20;;;21.00;88.50;;;;;;5054002;28;20550;-56
2023/06/21 02:34:53;;;;;;;15.05;13.55;;;21.00;89.40;;;;;;5053757;28;20036;-56
2023/06/21 02:37:19;;;;;;;16.33;14.73;;;21.00;88.60;;;;;;5053679;28;20035;-56
2023/06/21 02:39:45;;;;;;;15.05;13.65;;;21.00;88.80;;;;;;5053680;28;20033;-56
2023/06/21 02:42:10;;;;;;;16.08;14.48;;;21.00;88.80;;;;;;5052952;28;20558;-56
2023/06/21 02:44:36;;;;;;;14.70;13.30;;;21.00;89.00;;;;;;5053615;28;20017;-56
2023/06/21 02:47:02;;;;;;;16.23;14.63;;;21.10;89.20;;;;;;5053548;28;20067;-57
2023/06/21 02:49:27;;;;;;;15.48;13.90;;;21.10;89.50;;;;;;5053654;28;20029;-56
2023/06/21 02:51:53;;;;;;;14.77;13.38;;;21.20;89.70;;;;;;5053565;28;20384;-56
2023/06/21 02:54:19;;;;;;;16.38;14.88;;;21.20;89.80;;;;;;5053585;28;20037;-56
2023/06/21 02:56:45;;;;;;;15.52;14.00;;;21.20;90.00;;;;;;5053605;28;20044;-56
2023/06/21 02:59:12;;;;;;;15.77;14.18;;;21.30;90.20;;;;;;5053162;28;20029;-55
2023/06/21 03:01:37;;;;;;;16.73;15.00;;;21.30;90.30;;;;;;5053471;28;20040;-56
2023/06/21 03:04:03;;;;;;;15.57;14.15;;;21.40;90.40;;;;;;5053214;28;20021;-57
2023/06/21 03:06:29;;;;;;;15.52;13.95;;;21.40;90.50;;;;;;5053206;28;20879;-56
2023/06/21 03:08:56;;;;;;;16.73;15.13;;;21.50;90.60;;;;;;5053185;28;20048;-57
2023/06/21 03:11:21;;;;;;;16.80;15.13;;;21.50;90.50;;;;;;5053411;28;20029;-57
2023/06/21 03:13:47;;;;;;;17.48;15.73;;;21.50;90.30;;;;;;5053377;28;20025;-57
2023/06/21 03:16:13;;;;;;;15.68;14.20;;;21.50;90.20;;;;;;5053169;28;20033;-56
2023/06/21 03:18:39;;;;;;;16.05;14.35;;;21.60;90.00;;;;;;5053000;28;20035;-53
2023/06/21 03:21:04;;;;;;;16.17;14.35;;;21.70;89.90;;;;;;5053002;28;20055;-54
2023/06/21 03:23:30;;;;;;;16.42;14.73;;;21.70;89.60;;;;;;5053081;28;20024;-56
2023/06/21 03:25:56;;;;;;;15.93;14.35;;;21.80;89.20;;;;;;5053091;28;20071;-56
2023/06/21 03:28:22;;;;;;;16.42;14.80;;;21.80;88.70;;;;;;5052939;28;20029;-56
2023/06/21 03:30:47;;;;;;;16.08;14.32;;;21.80;88.20;;;;;;5052694;28;20029;-54
2023/06/21 03:33:13;;;;;;;16.35;14.75;;;21.90;87.90;;;;;;5052514;28;20051;-57
2023/06/21 03:35:39;;;;;;;15.68;14.18;;;22.00;87.50;;;;;;5052595;28;20040;-55
2023/06/21 03:38:07;;;;;;;15.95;14.35;;;22.00;87.00;;;;;;5052701;28;20025;-57
2023/06/21 03:40:33;;;;;;;15.85;14.25;;;22.10;87.00;;;;;;5052468;28;20107;-56
2023/06/21 03:42:58;;;;;;;15.80;14.20;;;22.20;87.00;;;;;;5052628;28;20056;-57
2023/06/21 03:45:24;;;;;;;16.38;14.77;;;22.40;87.20;;;;;;5052513;28;20017;-56
2023/06/21 03:47:50;;;;;;;15.80;14.30;;;22.70;87.00;;;;;;5052493;28;20025;-57
2023/06/21 03:50:15;;;;;;;14.55;13.15;;;23.20;85.90;;;;;;5052372;28;20040;-57
2023/06/21 03:52:41;;;;;;;15.57;14.07;;;23.70;84.50;;;;;;5052275;28;20040;-53
2023/06/21 03:55:07;;;;;;;13.40;12.13;;;24.20;82.90;;;;;;5051358;28;20036;-57
2023/06/21 03:57:34;;;;;;;14.23;12.93;;;24.70;81.40;;;;;;5051965;28;20122;-57
2023/06/21 04:00:00;;;;;;;13.80;12.48;;;25.10;79.80;;;;;;5052036;28;20025;-57
2023/06/21 04:02:25;;;;;;;12.68;11.48;;;25.50;78.40;;;;;;5052055;28;20044;-57
2023/06/21 04:04:52;;;;;;;11.80;10.70;;;25.90;77.30;;;;;;5052161;28;20496;-57
2023/06/21 04:07:19;;;;;;;13.23;11.88;;;26.20;76.60;;;;;;5051996;28;20032;-57
2023/06/21 04:09:45;;;;;;;13.00;11.48;;;26.60;75.70;;;;;;5052237;28;20029;-57
2023/06/21 04:12:11;;;;;;;12.50;11.25;;;27.00;75.20;;;;;;5052104;28;20033;-54
2023/06/21 04:14:37;;;;;;;12.45;11.25;;;27.40;74.20;;;;;;5051886;28;20503;-57
2023/06/21 04:17:03;;;;;;;11.80;10.60;;;27.70;72.90;;;;;;5051699;28;20041;-55
2023/06/21 04:19:29;;;;;;;12.70;11.55;;;27.60;71.90;;;;;;5051643;28;20021;-57
2023/06/21 04:21:55;;;;;;;12.63;11.43;;;27.40;71.80;;;;;;5051604;28;20033;-53
2023/06/21 04:24:20;;;;;;;12.77;11.50;;;27.30;72.50;;;;;;5052022;28;20211;-58
2023/06/21 04:26:47;;;;;;;12.20;11.02;;;27.50;73.30;;;;;;5051512;28;20039;-52
2023/06/21 04:29:16;;;;;;;13.00;11.70;;;27.80;72.50;;;;;;5051896;28;20392;-57
2023/06/21 04:31:42;;;;;;;13.38;12.07;;;27.90;71.40;;;;;;5051713;28;20395;-58
2023/06/21 04:34:08;;;;;;;13.15;11.70;;;27.70;70.80;;;;;;5051332;28;20029;-58
2023/06/21 04:36:35;;;;;;;12.45;11.25;;;27.40;70.80;;;;;;5051702;28;20036;-56
2023/06/21 04:39:01;;;;;;;13.40;12.18;;;27.10;71.30;;;;;;5051628;28;20025;-56
2023/06/21 04:41:26;;;;;;;12.73;11.52;;;26.80;72.40;;;;;;5051073;28;20049;-56
2023/06/21 04:43:52;;;;;;;13.63;12.32;;;26.40;72.30;;;;;;5051359;28;20053;-56
2023/06/21 04:46:21;;;;;;;14.00;12.65;;;26.10;73.10;;;;;;5016312;28;20112;-56
2023/06/21 04:48:50;;;;;;;13.45;12.07;;;25.90;73.60;;;;;;5010774;28;20030;-56
2023/06/21 04:51:16;;;;;;;14.07;12.68;;;25.70;74.50;;;;;;5011134;28;20022;-56
2023/06/21 04:53:43;;;;;;;13.80;12.43;;;25.80;74.90;;;;;;5011572;28;20044;-55
2023/06/21 04:56:12;;;;;;;15.30;13.80;;;26.10;75.00;;;;;;5010590;28;20022;-56
2023/06/21 04:58:39;;;;;;;12.80;11.60;;;26.60;74.70;;;;;;5011739;28;20085;-56
2023/06/21 05:01:05;;;;;;;15.18;11.80;;;27.00;73.40;;;;;;5011726;28;20477;-57
2023/06/21 05:03:32;;;;;;;13.48;12.07;;;27.50;72.60;;;;;;5010913;28;20022;-54
2023/06/21 05:06:01;;;;;;;14.35;12.88;;;27.90;71.80;;;;;;5009280;28;20108;-56
2023/06/21 05:08:27;;;;;;;13.57;12.32;;;28.20;70.80;;;;;;5009527;28;20018;-57
2023/06/21 05:10:53;;;;;;;13.20;11.95;;;28.40;69.90;;;;;;5010229;28;20026;-58
2023/06/21 05:13:20;;;;;;;13.82;12.52;;;28.60;69.10;;;;;;5008509;28;20385;-56
2023/06/21 05:15:45;;;;;;;14.02;12.73;;;28.50;68.20;;;;;;5007853;28;20215;-58
2023/06/21 05:18:11;;;;;;;14.10;12.63;;;28.30;67.90;;;;;;5009388;28;20540;-58
2023/06/21 05:20:37;;;;;;;14.68;13.25;;;28.00;68.30;;;;;;5010979;28;20101;-58
2023/06/21 05:23:02;;;;;;;14.10;12.73;;;27.70;68.80;;;;;;5010432;28;20453;-58
2023/06/21 05:25:28;;;;;;;13.13;11.82;;;27.50;69.20;;;;;;5011012;28;20026;-56
2023/06/21 05:27:54;;;;;;;14.23;12.90;;;27.20;69.60;;;;;;5011236;28;20493;-58
2023/06/21 05:30:20;;;;;;;13.38;12.07;;;27.00;70.00;;;;;;5010472;28;20030;-57
2023/06/21 05:32:46;;;;;;;15.13;13.63;;;26.80;70.30;;;;;;5008493;28;20532;-58
2023/06/21 05:35:11;;;;;;;14.98;13.63;;;26.60;70.80;;;;;;5009400;28;20037;-57
2023/06/21 05:37:37;;;;;;;15.80;14.13;;;26.40;71.30;;;;;;5008715;28;20061;-55
2023/06/21 05:40:07;;;;;;;15.43;13.68;;;26.30;71.80;;;;;;5006651;28;20038;-56
2023/06/21 05:42:32;;;;;;;15.20;13.70;;;26.20;72.20;;;;;;5008259;28;20054;-58
2023/06/21 05:44:58;;;;;;;14.85;13.40;;;26.10;72.50;;;;;;5008921;28;20118;-57
2023/06/21 05:47:24;;;;;;;15.32;13.82;;;26.10;72.70;;;;;;5008088;28;20502;-57
2023/06/21 05:49:49;;;;;;;15.77;14.27;;;26.00;73.00;;;;;;5008992;28;20026;-58
2023/06/21 05:52:16;;;;;;;16.27;14.68;;;25.90;73.90;;;;;;5009483;28;20597;-58
2023/06/21 05:54:43;;;;;;;16.60;14.85;;;25.90;73.30;;;;;;5008695;28;20401;-54
2023/06/21 05:57:09;;;;;;;16.25;14.57;;;25.80;73.60;;;;;;5008452;28;20568;-58
2023/06/21 05:59:35;;;;;;;16.98;15.27;;;25.80;73.80;;;;;;5009818;28;20033;-57
2023/06/21 06:02:01;;;;;;;16.83;15.13;;;25.70;74.00;;;;;;5010012;28;20469;-58
2023/06/21 06:04:27;;;;;;;15.02;13.52;;;25.70;74.00;;;;;;5010157;28;20029;-57
2023/06/21 06:06:52;;;;;;;16.98;15.32;;;25.60;73.80;;;;;;5010821;28;20050;-58
2023/06/21 06:09:18;;;;;;;17.75;15.95;;;25.60;73.90;;;;;;4992691;28;20076;-58
2023/06/21 06:11:44;;;;;;;16.10;14.50;;;25.60;73.80;;;;;;5010959;28;20517;-58
2023/06/21 06:14:10;;;;;;;16.33;14.73;;;25.60;73.60;;;;;;5010660;28;20492;-58
2023/06/21 06:16:36;;;;;;;17.10;15.30;;;25.60;73.90;;;;;;5010442;28;20084;-57
2023/06/21 06:19:02;;;;;;;15.65;14.07;;;25.60;73.90;;;;;;5011049;28;20425;-57
2023/06/21 06:21:28;;;;;;;16.20;14.50;;;25.60;73.90;;;;;;5012227;28;20026;-58
2023/06/21 06:23:54;;;;;;;14.75;13.35;;;25.60;73.80;;;;;;4994759;28;20061;-56
2023/06/21 06:26:24;;;;;;;15.55;14.05;;;25.70;73.90;;;;;;5017200;28;20366;-54
2023/06/21 06:28:51;;;;;;;15.30;13.80;;;25.70;73.80;;;;;;5030715;28;20071;-56
2023/06/21 06:31:20;;;;;;;15.68;14.23;;;25.70;74.10;;;;;;5030793;28;20041;-58
2023/06/21 06:33:45;;;;;;;16.38;14.80;;;25.70;74.20;;;;;;5027166;28;20030;-57
2023/06/21 06:36:11;;;;;;;15.65;14.18;;;25.70;74.20;;;;;;5031307;28;20440;-56
2023/06/21 06:38:37;;;;;;;15.02;13.52;;;25.70;74.30;;;;;;5026793;28;20362;-55
2023/06/21 06:41:02;;;;;;;14.52;13.10;;;25.70;74.30;;;;;;5035494;28;20049;-58
2023/06/21 06:43:28;;;;;;;16.05;14.45;;;25.80;74.40;;;;;;5031565;28;20131;-58
2023/06/21 06:45:53;;;;;;;16.13;14.52;;;25.80;74.50;;;;;;5036425;28;20030;-58
2023/06/21 06:48:19;;;;;;;15.75;14.25;;;25.80;74.30;;;;;;5038279;28;20396;-55
2023/06/21 06:50:45;;;;;;;16.10;14.57;;;25.90;74.40;;;;;;5037070;28;20515;-58
2023/06/21 06:53:10;;;;;;;15.68;14.18;;;26.00;74.30;;;;;;5044628;28;20029;-58
2023/06/21 06:55:36;;;;;;;16.10;14.60;;;26.10;74.10;;;;;;5032972;28;20057;-58
2023/06/21 06:58:02;;;;;;;16.90;15.27;;;26.10;73.90;;;;;;5027208;28;20119;-54
2023/06/21 07:00:28;;;;;;;16.05;14.45;;;26.10;73.60;;;;;;5037642;28;20132;-58
2023/06/21 07:02:56;;;;;;;16.60;15.00;;;26.20;73.60;;;;;;5031307;28;20049;-56
2023/06/21 07:05:25;;;;;;;16.88;15.20;;;26.20;73.60;;;;;;5019184;28;20396;-56
2023/06/21 07:07:52;;;;;;;16.73;15.05;;;26.30;73.50;;;;;;5028648;28;20586;-58
2023/06/21 07:10:18;;;;;;;15.75;14.25;;;26.30;73.40;;;;;;5029800;28;20497;-57
2023/06/21 07:12:44;;;;;;;17.00;15.30;;;26.40;73.40;;;;;;5033436;28;20036;-57
2023/06/21 07:15:10;;;;;;;15.80;14.30;;;26.40;73.30;;;;;;5022176;28;20030;-58
2023/06/21 07:17:36;;;;;;;16.25;14.73;;;26.50;73.40;;;;;;5033609;28;20025;-58
2023/06/21 07:20:01;;;;;;;16.85;15.15;;;26.50;73.20;;;;;;5021454;28;20049;-55
2023/06/21 07:22:27;;;;;;;15.10;13.68;;;26.50;73.10;;;;;;5024389;28;20049;-58
2023/06/21 07:24:53;;;;;;;15.88;14.27;;;26.60;73.00;;;;;;5030087;28;20030;-57
2023/06/21 07:27:19;;;;;;;15.57;13.98;;;26.70;72.80;;;;;;5025115;28;20035;-57
2023/06/21 07:29:45;;;;;;;17.13;15.38;;;26.70;72.80;;;;;;5026944;28;20034;-58
2023/06/21 07:32:10;;;;;;;16.20;14.60;;;26.80;72.50;;;;;;5028889;28;20021;-58
2023/06/21 07:34:36;;;;;;;15.40;13.90;;;26.80;72.40;;;;;;5032287;28;20117;-55
2023/06/21 07:37:02;;;;;;;15.82;14.27;;;26.90;72.50;;;;;;5023863;28;20041;-59
2023/06/21 07:39:27;;;;;;;17.10;15.50;;;26.90;72.30;;;;;;5023995;28;20034;-58
2023/06/21 07:41:56;;;;;;;16.95;15.15;;;27.00;72.30;;;;;;5024518;28;20628;-57
2023/06/21 07:44:22;;;;;;;15.57;14.07;;;27.10;72.10;;;;;;5016484;28;20491;-55
2023/06/21 07:46:51;;;;;;;16.33;14.82;;;27.10;72.20;;;;;;5016469;28;20029;-59
2023/06/21 07:49:20;;;;;;;17.40;15.63;;;27.10;72.10;;;;;;5020657;28;20070;-56
2023/06/21 07:51:45;;;;;;;17.08;15.38;;;27.20;72.10;;;;;;5022976;28;20040;-57
2023/06/21 07:54:11;;;;;;;15.52;14.02;;;27.20;72.00;;;;;;5024166;28;20112;-58
2023/06/21 07:56:37;;;;;;;16.65;14.63;;;27.30;71.80;;;;;;5025698;28;20076;-54
2023/06/21 07:59:02;;;;;;;15.63;14.13;;;27.30;71.30;;;;;;5021036;28;20022;-53
2023/06/21 08:01:28;;;;;;;15.55;14.07;;;27.30;71.10;;;;;;5027093;28;20036;-57
2023/06/21 08:03:54;;;;;;;15.13;13.73;;;27.30;70.70;;;;;;5027121;28;20086;-58
2023/06/21 08:06:19;;;;;;;16.90;15.15;;;27.30;70.70;;;;;;5018313;28;20022;-59
2023/06/21 08:08:45;;;;;;;16.77;15.10;;;27.30;70.90;;;;;;5017528;28;20057;-57
2023/06/21 08:11:10;;;;;;;18.15;16.17;;;27.30;70.90;;;;;;5012538;28;20087;-58
2023/06/21 08:13:36;;;;;;;15.55;14.05;;;27.30;70.90;;;;;;5011959;28;20416;-57
2023/06/21 08:16:02;;;;;;;16.48;14.73;;;27.30;70.90;;;;;;5011079;28;20029;-58
2023/06/21 08:18:27;;;;;;;15.73;14.25;;;27.30;70.90;;;;;;5018986;28;20418;-57
2023/06/21 08:20:53;;;;;;;16.63;14.93;;;27.20;70.90;;;;;;5011795;28;20481;-57
2023/06/21 08:23:19;;;;;;;15.65;14.15;;;27.20;70.90;;;;;;5024409;28;20408;-57
2023/06/21 08:25:45;;;;;;;15.95;14.35;;;27.20;70.80;;;;;;5001582;28;20486;-56
2023/06/21 08:28:11;;;;;;;16.00;14.50;;;27.20;70.70;;;;;;5023410;28;20040;-58
2023/06/21 08:30:37;;;;;;;16.15;14.50;;;27.10;70.40;;;;;;5022900;28;20033;-57
2023/06/21 08:33:02;;;;;;;15.55;14.05;;;27.10;70.40;;;;;;5020882;28;20033;-58
2023/06/21 08:35:30;;;;;;;17.00;15.30;;;27.00;70.40;;;;;;5021960;28;20115;-57
2023/06/21 08:37:59;;;;;;;17.73;15.93;;;27.00;70.40;;;;;;5022379;28;20037;-58
2023/06/21 08:40:27;;;;;;;16.23;14.70;;;26.90;70.70;;;;;;5021170;28;20041;-57
2023/06/21 08:42:53;;;;;;;16.42;14.82;;;26.80;70.80;;;;;;5020854;28;20037;-57
2023/06/21 08:45:19;;;;;;;16.17;14.55;;;26.80;71.10;;;;;;5019019;28;20032;-56
2023/06/21 08:47:46;;;;;;;16.92;15.23;;;26.70;71.30;;;;;;5023378;28;20146;-58
2023/06/21 08:50:16;;;;;;;17.88;15.98;;;26.70;71.50;;;;;;5021768;28;20124;-57
2023/06/21 08:52:43;;;;;;;16.23;14.63;;;26.60;71.70;;;;;;5028210;28;20029;-54
2023/06/21 08:55:10;;;;;;;17.13;15.35;;;26.50;71.90;;;;;;5032166;28;20052;-57
2023/06/21 08:58:03;;;;;;;16.23;14.63;;;26.50;72.20;;;;;;5026125;28;20033;-57
2023/06/21 09:00:36;;;;;;;15.60;14.10;;;26.50;72.20;;;;;;5027545;28;20067;-56
2023/06/21 09:03:13;;;;;;;15.85;14.25;;;26.40;72.50;;;;;;5072944;23;20049;-85
2023/06/21 09:05:54;;;;;;;15.52;13.90;;;26.40;72.70;;;;;;5049123;28;20048;-85
2023/06/21 09:08:19;;;;;;;14.80;13.40;;;26.40;72.80;;;;;;5046212;28;20029;-86
2023/06/21 09:10:50;;;;;;;15.40;13.90;;;26.40;72.90;;;;;;5034926;28;20032;-88
2023/06/21 09:13:17;;;;;;;;;;;26.40;72.70;;;;;;5042555;28;20049;-92
2023/06/21 09:15:45;;;;;;;14.32;12.93;;;26.40;72.80;;;;;;5030149;23;19932;-59
2023/06/21 09:18:12;;;;;;;14.73;13.32;;;26.40;73.30;;;;;;5014268;28;20105;-58
2023/06/21 09:20:38;;;;;;;15.02;13.63;;;26.40;72.80;;;;;;5023987;28;20038;-57
2023/06/21 09:23:05;;;;;;;14.20;12.80;;;26.50;72.70;;;;;;5015922;28;20033;-57
2023/06/21 09:25:30;;;;;;;15.15;13.65;;;26.50;72.70;;;;;;5004119;28;20401;-56
2023/06/21 09:27:56;;;;;;;13.82;12.43;;;26.50;72.50;;;;;;5016307;28;20041;-54
2023/06/21 09:30:23;;;;;;;15.00;13.48;;;26.40;72.10;;;;;;5021292;28;20034;-58
2023/06/21 09:32:49;;;;;;;14.02;12.73;;;26.40;72.00;;;;;;5019830;28;20171;-55
2023/06/21 09:35:15;;;;;;;14.65;13.25;;;26.30;72.00;;;;;;5027820;28;20040;-51
2023/06/21 09:37:41;;;;;;;14.30;12.82;;;26.30;72.30;;;;;;5020759;28;20030;-55
2023/06/21 09:40:07;;;;;;;14.93;13.20;;;26.20;72.60;;;;;;5026904;28;20040;-55
2023/06/21 09:42:39;;;;;;;15.02;13.35;;;26.10;72.50;;;;;;5022050;28;20029;-54
2023/06/21 09:45:09;;;;;;;15.07;13.55;;;26.10;72.80;;;;;;5011356;28;20029;-54
2023/06/21 09:47:35;;;;;;;13.65;12.35;;;26.00;72.90;;;;;;5014632;28;20033;-53
2023/06/21 09:50:04;;;;;;;13.73;12.13;;;25.90;73.10;;;;;;5017619;28;20022;-55
2023/06/21 09:52:30;;;;;;;12.50;11.23;;;25.80;73.30;;;;;;5024567;28;20444;-57
2023/06/21 09:54:57;;;;;;;10.23;9.23;;;25.80;73.30;;;;;;5021772;28;20022;-57
2023/06/21 09:57:32;;;;;;;9.25;7.88;;;25.60;72.60;;;;;;5016372;28;20041;-57
2023/06/21 09:59:59;;;;;;;6.88;6.15;;;25.40;72.20;;;;;;5029542;28;20029;-57
2023/06/21 10:02:26;;;;;;;5.57;4.60;;;25.20;72.10;;;;;;5027384;28;20477;-57
2023/06/21 10:04:54;;;;;;;5.65;4.93;;;25.00;72.10;;;;;;5022747;28;20061;-55
2023/06/21 10:07:26;;;;;;;6.18;5.43;;;24.70;71.80;;;;;;5025342;28;21089;-55
2023/06/21 10:09:52;;;;;;;6.93;5.93;;;24.50;71.90;;;;;;5023854;28;20061;-56
2023/06/21 10:12:18;;;;;;;7.90;7.00;;;24.30;72.50;;;;;;5013398;28;20592;-55
2023/06/21 10:14:44;;;;;;;9.57;7.47;;;24.20;73.00;;;;;;5017840;28;20057;-57
2023/06/21 10:17:11;;;;;;;7.20;6.50;;;24.00;73.70;;;;;;5018065;28;20057;-57
2023/06/21 10:19:37;;;;;;;8.40;7.20;;;23.90;73.80;;;;;;5018853;28;20036;-57
2023/06/21 10:22:11;;;;;;;7.45;6.75;;;23.90;74.50;;;;;;5024919;28;20029;-56
2023/06/21 10:24:37;;;;;;;7.57;6.85;;;23.90;75.50;;;;;;5019456;28;20029;-58
2023/06/21 10:27:06;;;;;;;7.05;6.35;;;23.90;75.60;;;;;;5023673;28;20034;-54
2023/06/21 10:29:33;;;;;;;7.30;6.47;;;23.90;75.30;;;;;;5025521;28;20180;-54
2023/06/21 10:32:06;;;;;;;7.53;6.82;;;24.00;75.10;;;;;;5026955;28;20017;-60
2023/06/21 10:34:49;;;;;;;6.60;6.00;;;24.10;74.70;;;;;;5035380;28;20033;-55
2023/06/21 10:37:29;;;;;;;6.50;5.78;;;24.20;74.60;;;;;;5031127;28;20028;-58
2023/06/21 10:40:00;;;;;;;7.18;6.47;;;24.40;73.40;;;;;;5029219;28;20029;-55
2023/06/21 10:42:27;;;;;;;7.07;5.53;;;24.50;73.50;;;;;;5023501;28;20040;-54
2023/06/21 10:44:55;;;;;;;6.18;5.25;;;24.60;73.10;;;;;;5019596;28;20029;-54
2023/06/21 10:47:21;;;;;;;5.97;5.38;;;24.80;72.80;;;;;;5022282;28;20520;-57
2023/06/21 10:49:48;;;;;;;5.80;5.20;;;24.90;73.00;;;;;;5027379;28;20362;-54
2023/06/21 10:52:16;;;;;;;6.50;5.80;;;25.00;72.90;;;;;;5020834;28;20082;-58
2023/06/21 10:54:44;;;;;;;6.25;5.65;;;25.10;72.70;;;;;;5013118;28;20037;-58
2023/06/21 10:57:11;;;;;;;6.65;5.95;;;25.20;73.10;;;;;;5024123;28;20030;-58
2023/06/21 10:59:37;;;;;;;6.65;6.05;;;25.20;72.80;;;;;;5025694;28;20435;-53
2023/06/21 11:02:03;;;;;;;7.75;6.20;;;25.30;72.50;;;;;;5022472;28;20057;-54
2023/06/21 11:04:29;;;;;;;6.50;5.90;;;25.30;72.00;;;;;;5030651;28;20554;-57
2023/06/21 11:06:59;;;;;;;6.50;5.53;;;25.40;71.60;;;;;;5029342;28;20430;-58
2023/06/21 11:09:25;;;;;;;6.22;5.63;;;25.40;71.10;;;;;;5023936;28;20021;-51
2023/06/21 11:11:53;;;;;;;5.90;5.35;;;25.40;71.10;;;;;;5024331;28;20049;-57
2023/06/21 11:14:30;;;;;;;6.90;6.20;;;25.30;70.60;;;;;;5029254;28;20699;-57
2023/06/21 11:17:09;;;;;;;7.35;6.65;;;25.30;70.70;;;;;;5028634;28;20029;-54
2023/06/21 11:19:37;;;;;;;7.22;6.53;;;25.30;70.70;;;;;;5021687;28;20484;-58
2023/06/21 11:22:17;;;;;;;7.85;7.05;;;25.30;71.10;;;;;;5020513;28;20033;-54
2023/06/21 11:24:57;;;;;;;7.53;6.73;;;25.20;71.20;;;;;;5020284;28;20038;-55
2023/06/21 11:27:25;;;;;;;7.45;6.65;;;25.20;71.70;;;;;;5023974;28;20025;-57
2023/06/21 11:30:03;;;;;;;8.52;6.68;;;25.10;72.00;;;;;;5022408;28;20029;-58
2023/06/21 11:32:30;;;;;;;7.53;6.40;;;25.10;72.10;;;;;;5027239;28;20024;-51
2023/06/21 11:35:00;;;;;;;7.25;6.55;;;25.00;72.40;;;;;;5028641;28;20036;-54
2023/06/21 11:37:56;;;;;;;7.15;6.45;;;25.00;72.70;;;;;;5020769;28;20068;-54
2023/06/21 11:40:29;;;;;;;6.53;5.93;;;25.00;72.90;;;;;;5011385;28;20033;-57
2023/06/21 11:42:55;;;;;;;7.53;6.75;;;25.00;73.00;;;;;;5028161;28;20029;-57
2023/06/21 11:45:26;;;;;;;6.95;6.28;;;25.00;73.00;;;;;;5010659;28;20076;-57
2023/06/21 11:48:08;;;;;;;8.18;7.38;;;24.90;73.00;;;;;;5018544;28;20022;-58
2023/06/21 11:50:34;;;;;;;8.05;7.22;;;24.90;73.10;;;;;;5016123;28;20049;-55
2023/06/21 11:53:23;;;;;;;7.88;7.07;;;25.00;73.40;;;;;;5013668;28;20037;-50
2023/06/21 11:55:59;;;;;;;8.13;7.32;;;25.00;73.40;;;;;;5013881;28;20037;-56
2023/06/21 11:58:25;;;;;;;8.25;7.32;;;25.00;73.50;;;;;;5016710;28;20528;-56
2023/06/21 12:00:52;;;;;;;9.80;8.02;;;25.00;73.40;;;;;;5017723;28;20441;-57
2023/06/21 12:03:18;;;;;;;7.55;6.85;;;25.00;73.30;;;;;;5005467;28;20038;-54
2023/06/21 12:05:47;;;;;;;8.10;7.22;;;25.00;73.10;;;;;;5014119;28;20044;-56
2023/06/21 12:08:13;;;;;;;7.38;6.63;;;25.10;72.90;;;;;;5020675;28;20029;-59
2023/06/21 12:10:39;;;;;;;8.40;7.50;;;25.00;72.70;;;;;;5015860;28;20033;-54
2023/06/21 12:13:06;;;;;;;7.45;6.72;;;25.10;72.70;;;;;;5013162;28;20092;-57
2023/06/21 12:15:32;;;;;;;8.27;7.47;;;25.10;72.60;;;;;;5013756;28;20049;-57
2023/06/21 12:17:58;;;;;;;8.43;7.10;;;25.20;72.80;;;;;;5015466;28;20040;-58
2023/06/21 12:20:23;;;;;;;7.85;7.05;;;25.20;72.80;;;;;;5016349;28;20036;-58
2023/06/21 12:22:49;;;;;;;7.82;7.13;;;25.20;72.70;;;;;;5013501;28;20060;-54
2023/06/21 12:25:15;;;;;;;8.15;7.18;;;25.20;72.70;;;;;;5023517;28;20061;-50
2023/06/21 12:27:56;;;;;;;8.35;7.55;;;25.20;72.40;;;;;;5016575;28;20065;-51
2023/06/21 12:30:25;;;;;;;8.93;8.02;;;25.30;72.30;;;;;;5016969;28;20504;-55
2023/06/21 12:32:51;;;;;;;8.32;7.53;;;25.30;72.40;;;;;;5016686;28;20504;-57